sensor_id;sensor_type;location;lat;lon;timestamp;temperature;humidity
22108;DHT22;11220;48.812;9.128;2023-06-14T00:01:50;21.10;58.50
22108;DHT22;11220;48.812;9.128;2023-06-14T00:04:15;20.90;58.40
22108;DHT22;11220;48.812;9.128;2023-06-14T00:06:46;20.90;58.40
22108;DHT22;11220;48.812;9.128;2023-06-14T00:09:12;20.90;58.50
22108;DHT22;11220;48.812;9.128;2023-06-14T00:11:39;20.90;58.50
22108;DHT22;11220;48.812;9.128;2023-06-14T00:14:05;20.90;58.60
22108;DHT22;11220;48.812;9.128;2023-06-14T00:16:31;20.80;58.60
22108;DHT22;11220;48.812;9.128;2023-06-14T00:18:58;20.90;58.60
22108;DHT22;11220;48.812;9.128;2023-06-14T00:21:23;20.80;58.60
22108;DHT22;11220;48.812;9.128;2023-06-14T00:23:49;20.80;58.60
22108;DHT22;11220;48.812;9.128;2023-06-14T00:26:15;20.90;58.70
22108;DHT22;11220;48.812;9.128;2023-06-14T00:28:40;20.80;58.70
22108;DHT22;11220;48.812;9.128;2023-06-14T00:31:06;20.80;58.70
22108;DHT22;11220;48.812;9.128;2023-06-14T00:33:32;20.80;58.80
22108;DHT22;11220;48.812;9.128;2023-06-14T00:35:57;20.90;58.80
22108;DHT22;11220;48.812;9.128;2023-06-14T00:38:23;20.70;58.80
22108;DHT22;11220;48.812;9.128;2023-06-14T00:40:48;20.70;58.80
22108;DHT22;11220;48.812;9.128;2023-06-14T00:43:14;20.70;58.80
22108;DHT22;11220;48.812;9.128;2023-06-14T00:45:39;20.70;58.90
22108;DHT22;11220;48.812;9.128;2023-06-14T00:48:05;20.80;58.90
22108;DHT22;11220;48.812;9.128;2023-06-14T00:50:33;20.70;58.90
22108;DHT22;11220;48.812;9.128;2023-06-14T00:53:02;20.70;58.90
22108;DHT22;11220;48.812;9.128;2023-06-14T00:55:28;20.70;59.00
22108;DHT22;11220;48.812;9.128;2023-06-14T00:57:55;20.70;59.00
22108;DHT22;11220;48.812;9.128;2023-06-14T01:00:21;20.70;59.10
22108;DHT22;11220;48.812;9.128;2023-06-14T01:02:47;20.70;59.20
22108;DHT22;11220;48.812;9.128;2023-06-14T01:05:14;20.60;59.10
22108;DHT22;11220;48.812;9.128;2023-06-14T01:10:38;20.60;59.20
22108;DHT22;11220;48.812;9.128;2023-06-14T01:13:13;20.60;59.20
22108;DHT22;11220;48.812;9.128;2023-06-14T01:15:43;20.60;59.20
22108;DHT22;11220;48.812;9.128;2023-06-14T01:18:09;20.60;59.20
22108;DHT22;11220;48.812;9.128;2023-06-14T01:20:43;20.60;59.20
22108;DHT22;11220;48.812;9.128;2023-06-14T01:23:10;20.50;59.20
22108;DHT22;11220;48.812;9.128;2023-06-14T01:25:40;20.50;59.30
22108;DHT22;11220;48.812;9.128;2023-06-14T01:28:10;20.50;59.30
22108;DHT22;11220;48.812;9.128;2023-06-14T01:30:38;20.50;60.00
22108;DHT22;11220;48.812;9.128;2023-06-14T01:33:04;20.50;59.40
22108;DHT22;11220;48.812;9.128;2023-06-14T01:35:31;20.50;59.40
22108;DHT22;11220;48.812;9.128;2023-06-14T01:37:57;20.50;59.50
22108;DHT22;11220;48.812;9.128;2023-06-14T01:40:23;20.50;59.40
22108;DHT22;11220;48.812;9.128;2023-06-14T01:42:50;20.50;59.40
22108;DHT22;11220;48.812;9.128;2023-06-14T01:45:18;20.50;59.40
22108;DHT22;11220;48.812;9.128;2023-06-14T01:47:44;20.50;59.50
22108;DHT22;11220;48.812;9.128;2023-06-14T01:50:10;20.40;59.50
22108;DHT22;11220;48.812;9.128;2023-06-14T01:52:39;20.40;59.50
22108;DHT22;11220;48.812;9.128;2023-06-14T01:55:06;20.40;59.40
22108;DHT22;11220;48.812;9.128;2023-06-14T01:57:31;20.40;59.40
22108;DHT22;11220;48.812;9.128;2023-06-14T01:59:57;20.40;59.50
22108;DHT22;11220;48.812;9.128;2023-06-14T02:02:23;20.40;59.50
22108;DHT22;11220;48.812;9.128;2023-06-14T02:04:48;20.40;59.40
22108;DHT22;11220;48.812;9.128;2023-06-14T02:07:14;20.40;59.40
22108;DHT22;11220;48.812;9.128;2023-06-14T02:09:42;20.80;59.70
22108;DHT22;11220;48.812;9.128;2023-06-14T02:12:08;20.30;59.50
22108;DHT22;11220;48.812;9.128;2023-06-14T02:14:46;20.30;59.50
22108;DHT22;11220;48.812;9.128;2023-06-14T02:17:12;20.30;59.60
22108;DHT22;11220;48.812;9.128;2023-06-14T02:19:38;20.30;59.60
22108;DHT22;11220;48.812;9.128;2023-06-14T02:22:04;20.30;59.70
22108;DHT22;11220;48.812;9.128;2023-06-14T02:24:29;20.30;59.80
22108;DHT22;11220;48.812;9.128;2023-06-14T02:26:55;20.30;59.80
22108;DHT22;11220;48.812;9.128;2023-06-14T02:29:21;20.30;59.90
22108;DHT22;11220;48.812;9.128;2023-06-14T02:31:46;20.30;60.00
22108;DHT22;11220;48.812;9.128;2023-06-14T02:34:13;20.30;60.10
22108;DHT22;11220;48.812;9.128;2023-06-14T02:36:39;20.60;60.40
22108;DHT22;11220;48.812;9.128;2023-06-14T02:39:07;20.30;60.30
22108;DHT22;11220;48.812;9.128;2023-06-14T02:41:34;20.20;60.20
22108;DHT22;11220;48.812;9.128;2023-06-14T02:44:00;20.20;60.20
22108;DHT22;11220;48.812;9.128;2023-06-14T02:46:25;20.30;60.20
22108;DHT22;11220;48.812;9.128;2023-06-14T02:48:51;20.20;60.10
22108;DHT22;11220;48.812;9.128;2023-06-14T02:51:16;20.20;60.00
22108;DHT22;11220;48.812;9.128;2023-06-14T02:53:42;20.40;60.10
22108;DHT22;11220;48.812;9.128;2023-06-14T02:56:09;20.20;60.00
22108;DHT22;11220;48.812;9.128;2023-06-14T02:58:36;20.20;60.00
22108;DHT22;11220;48.812;9.128;2023-06-14T03:01:02;21.00;60.60
22108;DHT22;11220;48.812;9.128;2023-06-14T03:03:28;20.10;60.10
22108;DHT22;11220;48.812;9.128;2023-06-14T03:05:54;20.10;60.20
22108;DHT22;11220;48.812;9.128;2023-06-14T03:08:19;20.10;60.30
22108;DHT22;11220;48.812;9.128;2023-06-14T03:10:46;20.10;60.30
22108;DHT22;11220;48.812;9.128;2023-06-14T03:13:13;20.30;60.50
22108;DHT22;11220;48.812;9.128;2023-06-14T03:15:39;20.10;60.50
22108;DHT22;11220;48.812;9.128;2023-06-14T03:18:07;20.00;60.40
22108;DHT22;11220;48.812;9.128;2023-06-14T03:20:33;20.10;61.40
22108;DHT22;11220;48.812;9.128;2023-06-14T03:23:02;20.10;60.50
22108;DHT22;11220;48.812;9.128;2023-06-14T03:25:31;20.00;60.40
22108;DHT22;11220;48.812;9.128;2023-06-14T03:27:57;20.00;60.40
22108;DHT22;11220;48.812;9.128;2023-06-14T03:30:23;20.00;60.60
22108;DHT22;11220;48.812;9.128;2023-06-14T03:32:49;20.00;60.60
22108;DHT22;11220;48.812;9.128;2023-06-14T03:35:16;20.00;60.60
22108;DHT22;11220;48.812;9.128;2023-06-14T03:37:44;20.00;60.70
22108;DHT22;11220;48.812;9.128;2023-06-14T03:40:10;20.00;60.80
22108;DHT22;11220;48.812;9.128;2023-06-14T03:42:36;20.00;60.80
22108;DHT22;11220;48.812;9.128;2023-06-14T03:45:03;19.90;60.80
22108;DHT22;11220;48.812;9.128;2023-06-14T03:47:29;20.00;61.00
22108;DHT22;11220;48.812;9.128;2023-06-14T03:49:55;20.00;61.00
22108;DHT22;11220;48.812;9.128;2023-06-14T03:52:20;19.90;60.90
22108;DHT22;11220;48.812;9.128;2023-06-14T03:54:47;20.10;61.10
22108;DHT22;11220;48.812;9.128;2023-06-14T03:57:13;19.90;61.10
22108;DHT22;11220;48.812;9.128;2023-06-14T03:59:38;19.90;61.20
22108;DHT22;11220;48.812;9.128;2023-06-14T04:02:04;19.90;61.30
22108;DHT22;11220;48.812;9.128;2023-06-14T04:04:30;19.90;61.40
22108;DHT22;11220;48.812;9.128;2023-06-14T04:06:56;19.90;61.40
22108;DHT22;11220;48.812;9.128;2023-06-14T04:09:25;19.90;61.40
22108;DHT22;11220;48.812;9.128;2023-06-14T04:11:54;19.90;61.60
22108;DHT22;11220;48.812;9.128;2023-06-14T04:14:20;19.90;61.60
22108;DHT22;11220;48.812;9.128;2023-06-14T04:16:49;19.80;61.60
22108;DHT22;11220;48.812;9.128;2023-06-14T04:19:15;19.90;61.80
22108;DHT22;11220;48.812;9.128;2023-06-14T04:21:41;19.80;62.70
22108;DHT22;11220;48.812;9.128;2023-06-14T04:24:07;20.30;62.20
22108;DHT22;11220;48.812;9.128;2023-06-14T04:26:39;19.90;62.00
22108;DHT22;11220;48.812;9.128;2023-06-14T04:29:05;19.90;62.20
22108;DHT22;11220;48.812;9.128;2023-06-14T04:31:32;19.90;62.20
22108;DHT22;11220;48.812;9.128;2023-06-14T04:34:03;19.80;62.20
22108;DHT22;11220;48.812;9.128;2023-06-14T04:36:34;19.80;62.40
22108;DHT22;11220;48.812;9.128;2023-06-14T04:39:04;19.80;62.70
22108;DHT22;11220;48.812;9.128;2023-06-14T04:41:31;19.80;62.70
22108;DHT22;11220;48.812;9.128;2023-06-14T04:44:00;19.80;62.80
22108;DHT22;11220;48.812;9.128;2023-06-14T04:46:27;19.90;63.00
22108;DHT22;11220;48.812;9.128;2023-06-14T04:48:54;19.80;63.20
22108;DHT22;11220;48.812;9.128;2023-06-14T04:51:20;19.80;63.30
22108;DHT22;11220;48.812;9.128;2023-06-14T04:53:47;19.80;63.50
22108;DHT22;11220;48.812;9.128;2023-06-14T04:56:14;19.80;63.60
22108;DHT22;11220;48.812;9.128;2023-06-14T04:58:40;19.80;63.70
22108;DHT22;11220;48.812;9.128;2023-06-14T05:01:06;19.80;63.90
22108;DHT22;11220;48.812;9.128;2023-06-14T05:03:34;19.90;64.10
22108;DHT22;11220;48.812;9.128;2023-06-14T05:06:00;19.80;64.20
22108;DHT22;11220;48.812;9.128;2023-06-14T05:08:26;19.90;64.40
22108;DHT22;11220;48.812;9.128;2023-06-14T05:10:52;19.90;64.60
22108;DHT22;11220;48.812;9.128;2023-06-14T05:13:18;19.80;64.60
22108;DHT22;11220;48.812;9.128;2023-06-14T05:15:44;19.40;64.40
22108;DHT22;11220;48.812;9.128;2023-06-14T05:18:09;20.50;65.30
22108;DHT22;11220;48.812;9.128;2023-06-14T05:20:35;19.90;65.00
22108;DHT22;11220;48.812;9.128;2023-06-14T05:23:02;20.20;65.30
22108;DHT22;11220;48.812;9.128;2023-06-14T05:25:28;20.80;65.90
22108;DHT22;11220;48.812;9.128;2023-06-14T05:27:54;20.80;66.10
22108;DHT22;11220;48.812;9.128;2023-06-14T05:30:20;19.90;65.70
22108;DHT22;11220;48.812;9.128;2023-06-14T05:32:45;19.90;65.80
22108;DHT22;11220;48.812;9.128;2023-06-14T05:35:11;19.90;65.80
22108;DHT22;11220;48.812;9.128;2023-06-14T05:37:36;19.90;65.90
22108;DHT22;11220;48.812;9.128;2023-06-14T05:40:03;20.10;66.10
22108;DHT22;11220;48.812;9.128;2023-06-14T05:42:32;19.90;65.90
22108;DHT22;11220;48.812;9.128;2023-06-14T05:44:58;19.90;66.00
22108;DHT22;11220;48.812;9.128;2023-06-14T05:47:23;19.90;66.00
22108;DHT22;11220;48.812;9.128;2023-06-14T05:49:49;20.00;66.10
22108;DHT22;11220;48.812;9.128;2023-06-14T05:52:14;20.00;66.00
22108;DHT22;11220;48.812;9.128;2023-06-14T05:54:40;19.90;65.90
22108;DHT22;11220;48.812;9.128;2023-06-14T05:57:07;19.90;65.80
22108;DHT22;11220;48.812;9.128;2023-06-14T05:59:32;19.90;65.80
22108;DHT22;11220;48.812;9.128;2023-06-14T06:01:58;20.00;65.80
22108;DHT22;11220;48.812;9.128;2023-06-14T06:04:23;20.20;65.80
22108;DHT22;11220;48.812;9.128;2023-06-14T06:06:49;19.90;65.40
22108;DHT22;11220;48.812;9.128;2023-06-14T06:09:15;19.90;65.40
22108;DHT22;11220;48.812;9.128;2023-06-14T06:11:40;20.00;65.40
22108;DHT22;11220;48.812;9.128;2023-06-14T06:14:06;20.00;65.40
22108;DHT22;11220;48.812;9.128;2023-06-14T06:16:32;20.00;65.50
22108;DHT22;11220;48.812;9.128;2023-06-14T06:18:58;20.00;65.50
22108;DHT22;11220;48.812;9.128;2023-06-14T06:21:24;20.00;65.40
22108;DHT22;11220;48.812;9.128;2023-06-14T06:23:50;20.00;65.30
22108;DHT22;11220;48.812;9.128;2023-06-14T06:26:15;20.00;65.40
22108;DHT22;11220;48.812;9.128;2023-06-14T06:28:41;20.00;65.50
22108;DHT22;11220;48.812;9.128;2023-06-14T06:31:06;20.00;65.30
22108;DHT22;11220;48.812;9.128;2023-06-14T06:33:32;20.20;65.70
22108;DHT22;11220;48.812;9.128;2023-06-14T06:35:58;20.40;66.10
22108;DHT22;11220;48.812;9.128;2023-06-14T06:38:23;20.10;66.00
22108;DHT22;11220;48.812;9.128;2023-06-14T06:40:49;20.10;66.00
22108;DHT22;11220;48.812;9.128;2023-06-14T06:43:14;20.10;66.10
22108;DHT22;11220;48.812;9.128;2023-06-14T06:45:42;20.10;66.10
22108;DHT22;11220;48.812;9.128;2023-06-14T06:48:09;20.10;66.00
22108;DHT22;11220;48.812;9.128;2023-06-14T06:50:37;20.20;66.20
22108;DHT22;11220;48.812;9.128;2023-06-14T06:53:03;20.10;66.00
22108;DHT22;11220;48.812;9.128;2023-06-14T06:55:29;20.10;66.00
22108;DHT22;11220;48.812;9.128;2023-06-14T06:57:55;20.10;66.10
22108;DHT22;11220;48.812;9.128;2023-06-14T07:00:20;20.20;66.10
22108;DHT22;11220;48.812;9.128;2023-06-14T07:02:47;20.20;66.20
22108;DHT22;11220;48.812;9.128;2023-06-14T07:05:13;20.20;66.20
22108;DHT22;11220;48.812;9.128;2023-06-14T07:07:38;20.20;66.20
22108;DHT22;11220;48.812;9.128;2023-06-14T07:10:04;20.30;66.40
22108;DHT22;11220;48.812;9.128;2023-06-14T07:12:33;20.20;66.50
22108;DHT22;11220;48.812;9.128;2023-06-14T07:15:01;20.20;66.60
22108;DHT22;11220;48.812;9.128;2023-06-14T07:17:26;20.20;67.30
22108;DHT22;11220;48.812;9.128;2023-06-14T07:19:52;20.20;66.10
22108;DHT22;11220;48.812;9.128;2023-06-14T07:22:18;20.20;66.00
22108;DHT22;11220;48.812;9.128;2023-06-14T07:24:44;20.30;65.90
22108;DHT22;11220;48.812;9.128;2023-06-14T07:27:10;20.20;65.70
22108;DHT22;11220;48.812;9.128;2023-06-14T07:29:36;20.20;65.70
22108;DHT22;11220;48.812;9.128;2023-06-14T07:32:02;20.20;65.40
22108;DHT22;11220;48.812;9.128;2023-06-14T07:34:28;20.20;65.40
22108;DHT22;11220;48.812;9.128;2023-06-14T07:36:53;20.30;65.60
22108;DHT22;11220;48.812;9.128;2023-06-14T07:39:20;20.20;66.60
22108;DHT22;11220;48.812;9.128;2023-06-14T07:41:46;20.30;65.80
22108;DHT22;11220;48.812;9.128;2023-06-14T07:44:11;20.30;65.90
22108;DHT22;11220;48.812;9.128;2023-06-14T07:46:37;20.30;65.90
22108;DHT22;11220;48.812;9.128;2023-06-14T07:49:03;20.30;65.40
22108;DHT22;11220;48.812;9.128;2023-06-14T07:51:38;20.30;65.40
22108;DHT22;11220;48.812;9.128;2023-06-14T07:54:21;20.30;65.40
22108;DHT22;11220;48.812;9.128;2023-06-14T07:57:04;20.40;65.60
22108;DHT22;11220;48.812;9.128;2023-06-14T07:59:39;20.30;65.70
22108;DHT22;11220;48.812;9.128;2023-06-14T08:02:30;20.50;65.50
22108;DHT22;11220;48.812;9.128;2023-06-14T08:26:42;20.30;65.70
22108;DHT22;11220;48.812;9.128;2023-06-14T08:29:08;20.40;66.00
22108;DHT22;11220;48.812;9.128;2023-06-14T08:31:34;20.40;66.00
22108;DHT22;11220;48.812;9.128;2023-06-14T08:34:00;21.30;66.50
22108;DHT22;11220;48.812;9.128;2023-06-14T08:36:25;21.30;66.70
22108;DHT22;11220;48.812;9.128;2023-06-14T08:38:51;20.30;66.20
22108;DHT22;11220;48.812;9.128;2023-06-14T08:41:23;20.70;66.30
22108;DHT22;11220;48.812;9.128;2023-06-14T08:43:50;21.30;66.70
22108;DHT22;11220;48.812;9.128;2023-06-14T08:46:24;20.50;66.10
22108;DHT22;11220;48.812;9.128;2023-06-14T08:48:53;20.50;66.30
22108;DHT22;11220;48.812;9.128;2023-06-14T08:51:22;20.50;66.50
22108;DHT22;11220;48.812;9.128;2023-06-14T08:53:55;20.40;66.50
22108;DHT22;11220;48.812;9.128;2023-06-14T08:56:28;21.30;67.30
22108;DHT22;11220;48.812;9.128;2023-06-14T08:58:55;21.80;67.80
22108;DHT22;11220;48.812;9.128;2023-06-14T09:01:25;20.60;67.10
22108;DHT22;11220;48.812;9.128;2023-06-14T09:03:52;20.60;67.20
22108;DHT22;11220;48.812;9.128;2023-06-14T09:06:21;20.60;67.20
22108;DHT22;11220;48.812;9.128;2023-06-14T09:08:51;20.60;67.00
22108;DHT22;11220;48.812;9.128;2023-06-14T09:11:18;20.10;66.70
22108;DHT22;11220;48.812;9.128;2023-06-14T09:13:45;20.60;67.20
22108;DHT22;11220;48.812;9.128;2023-06-14T09:16:12;20.70;67.60
22108;DHT22;11220;48.812;9.128;2023-06-14T09:18:39;21.50;68.10
22108;DHT22;11220;48.812;9.128;2023-06-14T09:21:07;20.70;67.60
22108;DHT22;11220;48.812;9.128;2023-06-14T09:23:46;21.60;68.20
22108;DHT22;11220;48.812;9.128;2023-06-14T09:26:14;21.40;68.00
22108;DHT22;11220;48.812;9.128;2023-06-14T09:28:43;20.70;67.70
22108;DHT22;11220;48.812;9.128;2023-06-14T09:31:17;20.90;68.00
22108;DHT22;11220;48.812;9.128;2023-06-14T09:33:44;20.70;68.00
22108;DHT22;11220;48.812;9.128;2023-06-14T09:36:22;20.80;69.10
22108;DHT22;11220;48.812;9.128;2023-06-14T09:39:00;20.70;68.10
22108;DHT22;11220;48.812;9.128;2023-06-14T09:44:02;21.40;68.90
22108;DHT22;11220;48.812;9.128;2023-06-14T09:46:30;21.80;69.30
22108;DHT22;11220;48.812;9.128;2023-06-14T09:48:59;20.90;68.80
22108;DHT22;11220;48.812;9.128;2023-06-14T09:51:26;20.90;68.80
22108;DHT22;11220;48.812;9.128;2023-06-14T09:53:52;20.90;68.80
22108;DHT22;11220;48.812;9.128;2023-06-14T09:56:37;20.90;69.00
22108;DHT22;11220;48.812;9.128;2023-06-14T10:05:50;20.80;68.60
22108;DHT22;11220;48.812;9.128;2023-06-14T10:08:23;21.00;68.90
22108;DHT22;11220;48.812;9.128;2023-06-14T10:10:58;21.00;69.10
22108;DHT22;11220;48.812;9.128;2023-06-14T10:13:26;20.80;69.30
22108;DHT22;11220;48.812;9.128;2023-06-14T10:16:13;21.60;69.60
22108;DHT22;11220;48.812;9.128;2023-06-14T10:19:16;21.20;69.40
22108;DHT22;11220;48.812;9.128;2023-06-14T10:24:13;20.90;68.70
22108;DHT22;11220;48.812;9.128;2023-06-14T10:26:58;20.90;68.60
22108;DHT22;11220;48.812;9.128;2023-06-14T10:29:24;21.00;68.50
22108;DHT22;11220;48.812;9.128;2023-06-14T10:32:08;20.90;68.50
22108;DHT22;11220;48.812;9.128;2023-06-14T10:41:28;21.30;69.10
22108;DHT22;11220;48.812;9.128;2023-06-14T10:47:34;19.50;68.10
22108;DHT22;11220;48.812;9.128;2023-06-14T10:50:34;21.00;68.80
22108;DHT22;11220;48.812;9.128;2023-06-14T10:53:25;21.70;69.20
22108;DHT22;11220;48.812;9.128;2023-06-14T10:55:57;21.00;68.60
22108;DHT22;11220;48.812;9.128;2023-06-14T11:44:00;21.30;70.80
22108;DHT22;11220;48.812;9.128;2023-06-14T11:46:27;21.30;71.00
22108;DHT22;11220;48.812;9.128;2023-06-14T11:48:52;21.30;70.90
22108;DHT22;11220;48.812;9.128;2023-06-14T11:51:19;21.40;71.20
22108;DHT22;11220;48.812;9.128;2023-06-14T11:53:44;21.80;70.60
22108;DHT22;11220;48.812;9.128;2023-06-14T11:56:11;22.40;71.10
22108;DHT22;11220;48.812;9.128;2023-06-14T11:58:37;22.20;71.10
22108;DHT22;11220;48.812;9.128;2023-06-14T12:01:08;21.40;70.80
22108;DHT22;11220;48.812;9.128;2023-06-14T12:03:34;22.20;71.20
22108;DHT22;11220;48.812;9.128;2023-06-14T12:06:11;22.30;71.40
22108;DHT22;11220;48.812;9.128;2023-06-14T12:08:38;21.50;70.90
22108;DHT22;11220;48.812;9.128;2023-06-14T12:11:07;21.50;71.00
22108;DHT22;11220;48.812;9.128;2023-06-14T12:13:38;21.50;71.10
22108;DHT22;11220;48.812;9.128;2023-06-14T12:16:05;21.50;71.10
22108;DHT22;11220;48.812;9.128;2023-06-14T12:18:33;21.50;71.00
22108;DHT22;11220;48.812;9.128;2023-06-14T12:20:59;22.30;71.50
22108;DHT22;11220;48.812;9.128;2023-06-14T12:23:48;23.00;72.00
22108;DHT22;11220;48.812;9.128;2023-06-14T12:26:18;21.50;71.10
22108;DHT22;11220;48.812;9.128;2023-06-14T12:28:46;22.30;71.60
22108;DHT22;11220;48.812;9.128;2023-06-14T12:31:16;21.20;71.00
22108;DHT22;11220;48.812;9.128;2023-06-14T12:33:42;22.50;71.80
22108;DHT22;11220;48.812;9.128;2023-06-14T12:36:09;21.60;71.40
22108;DHT22;11220;48.812;9.128;2023-06-14T12:38:36;21.60;71.30
22108;DHT22;11220;48.812;9.128;2023-06-14T12:41:02;21.90;71.60
22108;DHT22;11220;48.812;9.128;2023-06-14T12:43:27;22.50;71.90
22108;DHT22;11220;48.812;9.128;2023-06-14T12:45:53;21.70;71.40
22108;DHT22;11220;48.812;9.128;2023-06-14T12:48:19;21.70;71.40
22108;DHT22;11220;48.812;9.128;2023-06-14T12:50:45;21.70;71.40
22108;DHT22;11220;48.812;9.128;2023-06-14T12:53:13;21.70;71.40
22108;DHT22;11220;48.812;9.128;2023-06-14T12:55:39;21.80;71.50
22108;DHT22;11220;48.812;9.128;2023-06-14T12:58:05;21.70;71.30
22108;DHT22;11220;48.812;9.128;2023-06-14T13:00:30;21.70;71.30
22108;DHT22;11220;48.812;9.128;2023-06-14T13:02:57;21.80;71.30
22108;DHT22;11220;48.812;9.128;2023-06-14T13:05:22;21.80;71.20
22108;DHT22;11220;48.812;9.128;2023-06-14T13:07:48;21.80;71.20
22108;DHT22;11220;48.812;9.128;2023-06-14T13:10:14;21.90;71.30
22108;DHT22;11220;48.812;9.128;2023-06-14T13:12:39;21.90;71.20
22108;DHT22;11220;48.812;9.128;2023-06-14T13:15:06;21.90;71.20
22108;DHT22;11220;48.812;9.128;2023-06-14T13:17:32;21.90;71.20
22108;DHT22;11220;48.812;9.128;2023-06-14T13:19:58;22.10;71.30
22108;DHT22;11220;48.812;9.128;2023-06-14T13:22:25;21.90;71.20
22108;DHT22;11220;48.812;9.128;2023-06-14T13:24:50;21.90;71.20
22108;DHT22;11220;48.812;9.128;2023-06-14T13:27:16;21.90;71.20
22108;DHT22;11220;48.812;9.128;2023-06-14T13:29:41;21.90;71.10
22108;DHT22;11220;48.812;9.128;2023-06-14T13:32:07;22.00;71.20
22108;DHT22;11220;48.812;9.128;2023-06-14T13:34:33;22.00;71.10
22108;DHT22;11220;48.812;9.128;2023-06-14T13:36:58;22.00;71.00
22108;DHT22;11220;48.812;9.128;2023-06-14T13:39:25;22.00;71.00
22108;DHT22;11220;48.812;9.128;2023-06-14T13:41:50;22.10;71.00
22108;DHT22;11220;48.812;9.128;2023-06-14T13:44:16;22.10;71.00
22108;DHT22;11220;48.812;9.128;2023-06-14T13:46:44;22.10;70.90
22108;DHT22;11220;48.812;9.128;2023-06-14T13:49:10;22.20;70.90
22108;DHT22;11220;48.812;9.128;2023-06-14T13:51:35;22.10;70.90
22108;DHT22;11220;48.812;9.128;2023-06-14T13:54:01;22.10;70.80
22108;DHT22;11220;48.812;9.128;2023-06-14T13:56:27;22.10;70.70
22108;DHT22;11220;48.812;9.128;2023-06-14T13:58:52;22.20;70.80
22108;DHT22;11220;48.812;9.128;2023-06-14T14:01:18;22.20;70.70
22108;DHT22;11220;48.812;9.128;2023-06-14T14:03:46;22.20;70.70
22108;DHT22;11220;48.812;9.128;2023-06-14T14:06:11;22.20;70.70
22108;DHT22;11220;48.812;9.128;2023-06-14T14:08:37;22.20;70.60
22108;DHT22;11220;48.812;9.128;2023-06-14T14:11:03;22.20;70.50
22108;DHT22;11220;48.812;9.128;2023-06-14T14:13:28;22.20;70.60
22108;DHT22;11220;48.812;9.128;2023-06-14T14:15:54;22.20;70.60
22108;DHT22;11220;48.812;9.128;2023-06-14T14:18:20;22.30;70.60
22108;DHT22;11220;48.812;9.128;2023-06-14T14:20:46;22.30;70.60
22108;DHT22;11220;48.812;9.128;2023-06-14T14:23:12;22.20;70.60
22108;DHT22;11220;48.812;9.128;2023-06-14T14:25:40;22.20;70.60
22108;DHT22;11220;48.812;9.128;2023-06-14T14:28:11;22.30;70.60
22108;DHT22;11220;48.812;9.128;2023-06-14T14:30:39;22.20;70.50
22108;DHT22;11220;48.812;9.128;2023-06-14T14:33:05;22.30;70.50
22108;DHT22;11220;48.812;9.128;2023-06-14T14:35:32;22.30;70.50
22108;DHT22;11220;48.812;9.128;2023-06-14T14:37:57;22.30;70.40
22108;DHT22;11220;48.812;9.128;2023-06-14T14:40:23;22.30;70.40
22108;DHT22;11220;48.812;9.128;2023-06-14T14:42:49;22.30;70.40
22108;DHT22;11220;48.812;9.128;2023-06-14T14:45:14;22.30;70.40
22108;DHT22;11220;48.812;9.128;2023-06-14T14:47:40;22.30;70.30
22108;DHT22;11220;48.812;9.128;2023-06-14T14:50:06;22.40;70.40
22108;DHT22;11220;48.812;9.128;2023-06-14T14:52:34;22.30;70.40
22108;DHT22;11220;48.812;9.128;2023-06-14T14:55:00;22.30;70.40
22108;DHT22;11220;48.812;9.128;2023-06-14T14:57:26;22.30;70.50
22108;DHT22;11220;48.812;9.128;2023-06-14T14:59:52;22.30;70.50
22108;DHT22;11220;48.812;9.128;2023-06-14T15:02:17;22.30;70.60
22108;DHT22;11220;48.812;9.128;2023-06-14T15:04:44;22.30;70.50
22108;DHT22;11220;48.812;9.128;2023-06-14T15:07:10;22.30;70.50
22108;DHT22;11220;48.812;9.128;2023-06-14T15:09:35;22.30;70.40
22108;DHT22;11220;48.812;9.128;2023-06-14T15:12:01;22.30;70.40
22108;DHT22;11220;48.812;9.128;2023-06-14T15:14:26;22.40;70.50
22108;DHT22;11220;48.812;9.128;2023-06-14T15:16:52;22.40;70.40
22108;DHT22;11220;48.812;9.128;2023-06-14T15:19:18;22.40;70.40
22108;DHT22;11220;48.812;9.128;2023-06-14T15:21:43;22.40;71.40
22108;DHT22;11220;48.812;9.128;2023-06-14T15:24:09;22.50;70.50
22108;DHT22;11220;48.812;9.128;2023-06-14T15:26:34;22.40;70.40
22108;DHT22;11220;48.812;9.128;2023-06-14T15:29:00;22.40;70.40
22108;DHT22;11220;48.812;9.128;2023-06-14T15:31:25;22.40;70.50
22108;DHT22;11220;48.812;9.128;2023-06-14T15:33:53;23.20;71.00
22108;DHT22;11220;48.812;9.128;2023-06-14T15:36:19;23.30;71.00
22108;DHT22;11220;48.812;9.128;2023-06-14T15:38:45;23.60;71.30
22108;DHT22;11220;48.812;9.128;2023-06-14T15:41:10;22.50;70.50
22108;DHT22;11220;48.812;9.128;2023-06-14T15:43:36;22.50;70.50
22108;DHT22;11220;48.812;9.128;2023-06-14T15:46:01;22.50;70.50
22108;DHT22;11220;48.812;9.128;2023-06-14T15:48:27;23.50;71.10
22108;DHT22;11220;48.812;9.128;2023-06-14T15:50:53;22.50;70.40
22108;DHT22;11220;48.812;9.128;2023-06-14T15:53:19;22.90;70.50
22108;DHT22;11220;48.812;9.128;2023-06-14T15:55:45;22.50;70.10
22108;DHT22;11220;48.812;9.128;2023-06-14T15:58:11;22.50;70.20
22108;DHT22;11220;48.812;9.128;2023-06-14T16:00:37;23.00;70.30
22108;DHT22;11220;48.812;9.128;2023-06-14T16:03:03;22.90;70.20
22108;DHT22;11220;48.812;9.128;2023-06-14T16:05:28;22.50;69.90
22108;DHT22;11220;48.812;9.128;2023-06-14T16:07:54;22.30;69.80
22108;DHT22;11220;48.812;9.128;2023-06-14T16:10:19;22.80;69.90
22108;DHT22;11220;48.812;9.128;2023-06-14T16:12:45;22.50;69.80
22108;DHT22;11220;48.812;9.128;2023-06-14T16:15:11;23.40;70.10
22108;DHT22;11220;48.812;9.128;2023-06-14T16:17:36;22.50;69.50
22108;DHT22;11220;48.812;9.128;2023-06-14T16:20:02;22.50;69.40
22108;DHT22;11220;48.812;9.128;2023-06-14T16:22:28;22.50;69.00
22108;DHT22;11220;48.812;9.128;2023-06-14T16:24:59;22.50;68.70
22108;DHT22;11220;48.812;9.128;2023-06-14T16:27:29;23.40;69.30
22108;DHT22;11220;48.812;9.128;2023-06-14T16:29:55;21.40;67.70
22108;DHT22;11220;48.812;9.128;2023-06-14T16:32:21;23.40;68.70
22108;DHT22;11220;48.812;9.128;2023-06-14T16:34:46;21.50;67.60
22108;DHT22;11220;48.812;9.128;2023-06-14T16:37:14;23.10;68.50
22108;DHT22;11220;48.812;9.128;2023-06-14T16:39:42;22.50;68.40
22108;DHT22;11220;48.812;9.128;2023-06-14T16:42:08;23.30;68.70
22108;DHT22;11220;48.812;9.128;2023-06-14T16:44:34;23.70;69.10
22108;DHT22;11220;48.812;9.128;2023-06-14T16:47:14;22.60;68.30
22108;DHT22;11220;48.812;9.128;2023-06-14T16:49:53;23.40;69.00
22108;DHT22;11220;48.812;9.128;2023-06-14T16:52:19;22.60;68.60
22108;DHT22;11220;48.812;9.128;2023-06-14T16:54:44;21.10;67.40
22108;DHT22;11220;48.812;9.128;2023-06-14T16:57:10;22.60;68.40
22108;DHT22;11220;48.812;9.128;2023-06-14T17:53:59;22.40;67.60
22108;DHT22;11220;48.812;9.128;2023-06-14T17:56:32;22.40;67.50
22108;DHT22;11220;48.812;9.128;2023-06-14T18:02:52;22.00;67.10